LMG400 LEZL-DNAA
Flight info
| Callsign | LMG400 |
|---|---|
| Flight time | N/A |
| Altitude | 31000 |
| Route | SVL M744 MGA L195 LIGUM/N0400F330 UB798 UA604 KAN/N0400F340 UR778 KUA UV456 OXORU |
| Aircraft | A400/M-SDE2E3FGRY/LB1D1G1 |
Departure
| Time | N/A |
|---|---|
| Airport | Seville Airport (LEZL) |
Arrival
| Time | 2026-04-22 15:07 |
|---|---|
| Airport | Nnamdi Azikiwe International Airport (DNAA) |
| Time | Latitude | Longitude | Altitude | Speed | Heading |
|---|---|---|---|---|---|
| 2026-04-22 14:12 | 14.77640 | 7.98507 | 30785 ft | 456 kts | 173° |
| 2026-04-22 14:13 | 14.71399 | 8.00018 | 30784 ft | 470 kts | 172° |
| 2026-04-22 14:13 | 14.64942 | 8.01584 | 30782 ft | 480 kts | 172° |
| 2026-04-22 14:14 | 14.58391 | 8.03174 | 30780 ft | 484 kts | 172° |
| 2026-04-22 14:14 | 14.51829 | 8.04767 | 30777 ft | 484 kts | 172° |
| 2026-04-22 14:15 | 14.45297 | 8.06349 | 30774 ft | 484 kts | 172° |
| 2026-04-22 14:15 | 14.38735 | 8.07935 | 30772 ft | 484 kts | 172° |
| 2026-04-22 14:16 | 14.32175 | 8.09519 | 30774 ft | 484 kts | 172° |
| 2026-04-22 14:16 | 14.25621 | 8.11100 | 30768 ft | 483 kts | 172° |
| 2026-04-22 14:17 | 14.19069 | 8.12680 | 30766 ft | 483 kts | 172° |
| 2026-04-22 14:17 | 14.12544 | 8.14253 | 30769 ft | 482 kts | 172° |
| 2026-04-22 14:18 | 14.05999 | 8.15829 | 30765 ft | 482 kts | 172° |
| 2026-04-22 14:18 | 13.99522 | 8.17388 | 30766 ft | 481 kts | 172° |
| 2026-04-22 14:19 | 13.92991 | 8.18959 | 30765 ft | 481 kts | 172° |
| 2026-04-22 14:19 | 13.86470 | 8.20527 | 30756 ft | 480 kts | 172° |
| 2026-04-22 14:20 | 13.76719 | 8.22870 | 30757 ft | 479 kts | 172° |
| 2026-04-22 14:20 | 13.70254 | 8.24423 | 30757 ft | 479 kts | 172° |
| 2026-04-22 14:21 | 13.60519 | 8.26758 | 30761 ft | 478 kts | 171° |
| 2026-04-22 14:22 | 13.50807 | 8.29080 | 30751 ft | 477 kts | 171° |
| 2026-04-22 14:23 | 13.41107 | 8.31382 | 30757 ft | 476 kts | 171° |
| 2026-04-22 14:23 | 13.34683 | 8.32895 | 30754 ft | 475 kts | 171° |
| 2026-04-22 14:24 | 13.28224 | 8.34408 | 30755 ft | 474 kts | 171° |
| 2026-04-22 14:24 | 13.21784 | 8.35908 | 30750 ft | 474 kts | 171° |
| 2026-04-22 14:25 | 13.15365 | 8.37409 | 30749 ft | 473 kts | 171° |
| 2026-04-22 14:25 | 13.08994 | 8.38958 | 30743 ft | 471 kts | 175° |
| 2026-04-22 14:26 | 13.02526 | 8.39828 | 30747 ft | 468 kts | 178° |
| 2026-04-22 14:26 | 12.96043 | 8.40508 | 30744 ft | 468 kts | 179° |
| 2026-04-22 14:27 | 12.93937 | 8.40712 | 30745 ft | 467 kts | 179° |
| 2026-04-22 14:27 | 12.88410 | 8.41241 | 30746 ft | 467 kts | 179° |
| 2026-04-22 14:28 | 12.81972 | 8.41866 | 30746 ft | 467 kts | 179° |
| 2026-04-22 14:28 | 12.75502 | 8.42503 | 30743 ft | 467 kts | 179° |
| 2026-04-22 14:29 | 12.69020 | 8.43145 | 30746 ft | 467 kts | 179° |
| 2026-04-22 14:29 | 12.62553 | 8.43786 | 30745 ft | 466 kts | 179° |
| 2026-04-22 14:30 | 12.60668 | 8.43973 | 30740 ft | 466 kts | 179° |
| 2026-04-22 14:30 | 12.54344 | 8.44598 | 30743 ft | 466 kts | 179° |
| 2026-04-22 14:31 | 12.47890 | 8.45236 | 30739 ft | 466 kts | 179° |
| 2026-04-22 14:31 | 12.41484 | 8.45869 | 30740 ft | 465 kts | 179° |
| 2026-04-22 14:32 | 12.35038 | 8.46505 | 30739 ft | 465 kts | 179° |
| 2026-04-22 14:32 | 12.28585 | 8.47142 | 30737 ft | 464 kts | 179° |
| 2026-04-22 14:33 | 12.22136 | 8.47778 | 30735 ft | 464 kts | 179° |
| 2026-04-22 14:33 | 12.15708 | 8.48412 | 30735 ft | 464 kts | 179° |
| 2026-04-22 14:34 | 12.09287 | 8.49020 | 30735 ft | 462 kts | 182° |
| 2026-04-22 14:34 | 12.03023 | 8.48228 | 30554 ft | 447 kts | 204° |
| 2026-04-22 14:34 | 12.00251 | 8.46990 | 30430 ft | 438 kts | 216° |
| 2026-04-22 14:35 | 11.97664 | 8.45355 | 30327 ft | 436 kts | 220° |
| 2026-04-22 14:35 | 11.95157 | 8.43602 | 30204 ft | 435 kts | 221° |
| 2026-04-22 14:35 | 11.92706 | 8.41798 | 30104 ft | 436 kts | 223° |
| 2026-04-22 14:35 | 11.90264 | 8.39966 | 29999 ft | 436 kts | 223° |
| 2026-04-22 14:36 | 11.87824 | 8.38134 | 29870 ft | 436 kts | 223° |
| 2026-04-22 14:36 | 11.85360 | 8.36296 | 29769 ft | 436 kts | 222° |
| 2026-04-22 14:36 | 11.82907 | 8.34480 | 29736 ft | 435 kts | 222° |
| 2026-04-22 14:37 | 11.77987 | 8.30867 | 29734 ft | 435 kts | 222° |
| 2026-04-22 14:37 | 11.73098 | 8.27293 | 29738 ft | 435 kts | 222° |
| 2026-04-22 14:38 | 11.68169 | 8.23694 | 29743 ft | 435 kts | 221° |
| 2026-04-22 14:38 | 11.63259 | 8.20109 | 29741 ft | 435 kts | 221° |
| 2026-04-22 14:39 | 11.58319 | 8.16502 | 29741 ft | 435 kts | 221° |
| 2026-04-22 14:39 | 11.53395 | 8.12909 | 29748 ft | 435 kts | 221° |
| 2026-04-22 14:40 | 11.45994 | 8.07509 | 29752 ft | 439 kts | 221° |
| 2026-04-22 14:40 | 11.41039 | 8.03894 | 29744 ft | 441 kts | 221° |
| 2026-04-22 14:41 | 11.36040 | 8.00253 | 29749 ft | 441 kts | 221° |
| 2026-04-22 14:41 | 11.31033 | 7.96608 | 29754 ft | 442 kts | 221° |
| 2026-04-22 14:42 | 11.26033 | 7.92969 | 29752 ft | 442 kts | 221° |
| 2026-04-22 14:42 | 11.21035 | 7.89332 | 29749 ft | 442 kts | 221° |
| 2026-04-22 14:43 | 11.16033 | 7.85694 | 29748 ft | 442 kts | 221° |
| 2026-04-22 14:43 | 11.11028 | 7.82055 | 29742 ft | 442 kts | 221° |
| 2026-04-22 14:44 | 11.06866 | 7.79029 | 29746 ft | 442 kts | 221° |
| 2026-04-22 14:44 | 11.01012 | 7.74777 | 29744 ft | 442 kts | 221° |
| 2026-04-22 14:45 | 10.96852 | 7.71756 | 29750 ft | 442 kts | 221° |
| 2026-04-22 14:45 | 10.91032 | 7.67531 | 29738 ft | 442 kts | 221° |
| 2026-04-22 14:46 | 10.86838 | 7.64488 | 29740 ft | 442 kts | 221° |
| 2026-04-22 14:46 | 10.81832 | 7.60858 | 29744 ft | 442 kts | 221° |
| 2026-04-22 14:47 | 10.76837 | 7.57239 | 29742 ft | 437 kts | 221° |
| 2026-04-22 14:47 | 10.71901 | 7.53663 | 29740 ft | 435 kts | 221° |
| 2026-04-22 14:48 | 10.67009 | 7.50118 | 29738 ft | 435 kts | 221° |
| 2026-04-22 14:48 | 10.62075 | 7.46556 | 29739 ft | 436 kts | 219° |
| 2026-04-22 14:49 | 10.59336 | 7.45177 | 29731 ft | 445 kts | 203° |
| 2026-04-22 14:49 | 10.56299 | 7.44461 | 29736 ft | 450 kts | 194° |
| 2026-04-22 14:49 | 10.50065 | 7.43597 | 29734 ft | 454 kts | 189° |
| 2026-04-22 14:50 | 10.43774 | 7.43002 | 29736 ft | 454 kts | 189° |
| 2026-04-22 14:50 | 10.37472 | 7.42408 | 29736 ft | 454 kts | 189° |
| 2026-04-22 14:51 | 10.34360 | 7.42100 | 29583 ft | 443 kts | 189° |
| 2026-04-22 14:51 | 10.31306 | 7.41791 | 28858 ft | 439 kts | 189° |
| 2026-04-22 14:51 | 10.28274 | 7.41477 | 28138 ft | 435 kts | 189° |
| 2026-04-22 14:51 | 10.25318 | 7.41166 | 27525 ft | 429 kts | 188° |
| 2026-04-22 14:52 | 10.22373 | 7.40856 | 26945 ft | 423 kts | 188° |
| 2026-04-22 14:52 | 10.19467 | 7.40550 | 26373 ft | 416 kts | 188° |
| 2026-04-22 14:52 | 10.16605 | 7.40248 | 25810 ft | 410 kts | 187° |
| 2026-04-22 14:52 | 10.13787 | 7.39952 | 25197 ft | 405 kts | 187° |
| 2026-04-22 14:53 | 10.10976 | 7.39656 | 24425 ft | 406 kts | 187° |
| 2026-04-22 14:53 | 10.08186 | 7.39374 | 23839 ft | 400 kts | 185° |
| 2026-04-22 14:53 | 10.05419 | 7.39253 | 23165 ft | 395 kts | 181° |
| 2026-04-22 14:53 | 10.02672 | 7.39238 | 22278 ft | 394 kts | 180° |
| 2026-04-22 14:54 | 9.99934 | 7.39228 | 21417 ft | 392 kts | 180° |
| 2026-04-22 14:54 | 9.97218 | 7.39212 | 20624 ft | 389 kts | 180° |
| 2026-04-22 14:54 | 9.94517 | 7.39190 | 19853 ft | 385 kts | 180° |
| 2026-04-22 14:54 | 9.91837 | 7.39164 | 19013 ft | 384 kts | 180° |
| 2026-04-22 14:55 | 9.89199 | 7.39131 | 18247 ft | 382 kts | 180° |
| 2026-04-22 14:55 | 9.86555 | 7.39094 | 17410 ft | 379 kts | 180° |
| 2026-04-22 14:55 | 9.83921 | 7.39050 | 16580 ft | 376 kts | 180° |
| 2026-04-22 14:55 | 9.81316 | 7.38997 | 15780 ft | 372 kts | 180° |
| 2026-04-22 14:56 | 9.78733 | 7.38931 | 15006 ft | 369 kts | 180° |
| 2026-04-22 14:56 | 9.76176 | 7.38850 | 14356 ft | 366 kts | 180° |
| 2026-04-22 14:56 | 9.73650 | 7.38745 | 13680 ft | 361 kts | 180° |
| 2026-04-22 14:56 | 9.71139 | 7.38637 | 12864 ft | 359 kts | 180° |
| 2026-04-22 14:57 | 9.68650 | 7.38531 | 12044 ft | 357 kts | 180° |
| 2026-04-22 14:57 | 9.66201 | 7.38429 | 11270 ft | 355 kts | 180° |
| 2026-04-22 14:57 | 9.63745 | 7.38328 | 10543 ft | 353 kts | 180° |
| 2026-04-22 14:57 | 9.61295 | 7.38229 | 10083 ft | 351 kts | 180° |
| 2026-04-22 14:58 | 9.58862 | 7.38130 | 9843 ft | 351 kts | 180° |
| 2026-04-22 14:58 | 9.56413 | 7.38031 | 9617 ft | 351 kts | 180° |
| 2026-04-22 14:58 | 9.53983 | 7.37933 | 9349 ft | 349 kts | 181° |
| 2026-04-22 14:58 | 9.51608 | 7.37836 | 9099 ft | 331 kts | 181° |
| 2026-04-22 14:59 | 9.49374 | 7.37743 | 8957 ft | 313 kts | 181° |
| 2026-04-22 14:59 | 9.47220 | 7.37656 | 8669 ft | 307 kts | 181° |
| 2026-04-22 14:59 | 9.45096 | 7.37571 | 8309 ft | 303 kts | 181° |
| 2026-04-22 14:59 | 9.43001 | 7.37487 | 7961 ft | 300 kts | 181° |
| 2026-04-22 15:00 | 9.40923 | 7.37403 | 7655 ft | 297 kts | 181° |
| 2026-04-22 15:00 | 9.38866 | 7.37320 | 7322 ft | 295 kts | 182° |
| 2026-04-22 15:00 | 9.36815 | 7.37238 | 6945 ft | 293 kts | 182° |
| 2026-04-22 15:00 | 9.34780 | 7.37156 | 6579 ft | 291 kts | 182° |
| 2026-04-22 15:01 | 9.32777 | 7.37075 | 6219 ft | 285 kts | 182° |
| 2026-04-22 15:01 | 9.30812 | 7.36996 | 5860 ft | 280 kts | 182° |
| 2026-04-22 15:01 | 9.28909 | 7.36919 | 5501 ft | 275 kts | 182° |
| 2026-04-22 15:01 | 9.27025 | 7.36844 | 5253 ft | 267 kts | 182° |
| 2026-04-22 15:02 | 9.25199 | 7.36770 | 5116 ft | 256 kts | 183° |
| 2026-04-22 15:02 | 9.23442 | 7.36699 | 4936 ft | 250 kts | 182° |
| 2026-04-22 15:02 | 9.21720 | 7.36629 | 4752 ft | 243 kts | 183° |
| 2026-04-22 15:02 | 9.20039 | 7.36561 | 4543 ft | 240 kts | 182° |
| 2026-04-22 15:03 | 9.18381 | 7.36494 | 4292 ft | 238 kts | 182° |
| 2026-04-22 15:03 | 9.16731 | 7.36427 | 4022 ft | 236 kts | 183° |
| 2026-04-22 15:03 | 9.15121 | 7.36180 | 3775 ft | 233 kts | 197° |
| 2026-04-22 15:03 | 9.13664 | 7.35529 | 3576 ft | 224 kts | 212° |
| 2026-04-22 15:04 | 9.12439 | 7.34658 | 3385 ft | 209 kts | 217° |
| 2026-04-22 15:04 | 9.11288 | 7.33819 | 3209 ft | 201 kts | 216° |
| 2026-04-22 15:04 | 9.10146 | 7.33015 | 2995 ft | 195 kts | 215° |
| 2026-04-22 15:04 | 9.09077 | 7.32265 | 2769 ft | 184 kts | 216° |
| 2026-04-22 15:05 | 9.08076 | 7.31557 | 2539 ft | 169 kts | 216° |
| 2026-04-22 15:05 | 9.07159 | 7.30907 | 2342 ft | 154 kts | 216° |
| 2026-04-22 15:05 | 9.06315 | 7.30309 | 2163 ft | 149 kts | 216° |
| 2026-04-22 15:05 | 9.05469 | 7.29710 | 2003 ft | 148 kts | 216° |
| 2026-04-22 15:06 | 9.04632 | 7.29119 | 1764 ft | 144 kts | 215° |
| 2026-04-22 15:06 | 9.03775 | 7.28512 | 1647 ft | 161 kts | 215° |
| 2026-04-22 15:06 | 9.02860 | 7.27870 | 1410 ft | 156 kts | 216° |
| 2026-04-22 15:06 | 9.02008 | 7.27249 | 1192 ft | 148 kts | 213° |
| 2026-04-22 15:07 | 9.01235 | 7.26708 | 1135 ft | 110 kts | 216° |
| 2026-04-22 15:07 | 9.00754 | 7.26369 | 1112 ft | 59 kts | 215° |
| 2026-04-22 15:07 | 9.00494 | 7.26183 | 1113 ft | 38 kts | 216° |
| 2026-04-22 15:07 | 9.00292 | 7.26052 | 1112 ft | 32 kts | 206° |
| 2026-04-22 15:08 | 9.00106 | 7.26049 | 1112 ft | 24 kts | 128° |
| 2026-04-22 15:08 | 9.00164 | 7.26160 | 1115 ft | 14 kts | 34° |
| 2026-04-22 15:08 | 9.00243 | 7.26213 | 1110 ft | 13 kts | 34° |
| 2026-04-22 15:08 | 9.00318 | 7.26268 | 1110 ft | 13 kts | 36° |
| 2026-04-22 15:09 | 9.00394 | 7.26322 | 1108 ft | 13 kts | 34° |
| 2026-04-22 15:09 | 9.00484 | 7.26386 | 1112 ft | 17 kts | 37° |
| 2026-04-22 15:09 | 9.00577 | 7.26451 | 1111 ft | 16 kts | 36° |
| 2026-04-22 15:09 | 9.00593 | 7.26527 | 1114 ft | 10 kts | 118° |
| 2026-04-22 15:10 | 9.00547 | 7.26582 | 1117 ft | 11 kts | 138° |
| 2026-04-22 15:10 | 9.00484 | 7.26628 | 1115 ft | 12 kts | 146° |
| 2026-04-22 15:10 | 9.00448 | 7.26700 | 1119 ft | 12 kts | 84° |
| 2026-04-22 15:10 | 9.00471 | 7.26782 | 1113 ft | 12 kts | 78° |
| 2026-04-22 15:11 | 9.00492 | 7.26867 | 1118 ft | 13 kts | 66° |
| 2026-04-22 15:11 | 9.00508 | 7.26894 | 1114 ft | 0 kts | 57° |